11°C Temp
8°C Dewpoint
82% Humidity
Temperature
8 KM/H
5 MPH
4 KTS
340°
North North
West

Wind Speed
Partly Cloudy
Conditions
Pressure 1013.92 (hPa) - 29.94 (in)
Visibility 6.2 (mi) - 10.0 (km)

Current Conditions
YMML
Location 60(km)
Metar :YMML 192000Z 34004KT 9999 FEW012 11/08 Q1014
Wed 20th November 07:00 am

Airport
  Metar Aviation API Data Provided by https://www.checkwx.com/ PHP scripts by weather34.com ©2019